x

Cape Elizabeth- 45nm Nw Of Aberdeen, Wa (46041) Wave Buoy

6:50 - Thu 26th May 2016 All times are PDT. -7 hours from GMT.

  • Sig Wave height 5.9ft
  • Swell Direction
  • Peak Period 8s
  • Average Period 6s
  • Wind
    13mph, 18mph gusts
  • Sea Temp 54°f
  • Luft Temp 53°f
  • Sea Pressure 1023.2mb
  • Cape Elizabeth- 45nm Nw Of Aberdeen, Wa
  • Cape Elizabeth- 45nm Nw Of Aberdeen, Wa

More Historic Weather Station data

Upgrade to MSW Pro to gain access to the past 30 days of data for over 8000 Wavebouys and Weather Stations around the globe.

Join Pro

Comparision Forecast

View Surf forecast
   
Do 05/26 6:50 6ft 8s 6s 13 18 mph 1023.2mb 54f 53f
5:50 6ft 8s 6s 13 18 mph 1023mb 54f 53f
4:50 5.5ft 8s 5s 16 18 mph 1022.8mb 54f 53f
3:50 6ft 8s 6s 16 18 mph 1022.8mb 55f 54f
2:50 6ft 8s 6s 16 18 mph 1023.2mb 54f 54f
1:50 5.5ft 8s 6s 13 16 mph 1023.3mb 54f 54f
12:50 5ft 8s 6s 13 16 mph 1023.3mb 55f 54f
Mi 05/25 11:50 5.5ft 8s 6s 13 16 mph 1023.6mb 55f 54f
10:50 5ft 8s 6s 13 18 mph 1023.6mb 55f 54f
9:50 5ft 8s 6s 13 16 mph 1023.6mb 55f 54f
8:50 4.5ft 8s 5s 16 18 mph 1023.5mb 56f 55f
7:50 5ft 8s 6s 13 16 mph 1023.4mb 56f 55f
6:50 5.5ft 8s 6s 13 16 mph 1023.3mb 56f 55f
5:50 5.5ft 8s 6s 13 18 mph 1023.4mb 56f 55f
4:50 6ft 8s 6s 13 18 mph 1023.4mb 56f 55f
3:50 6ft 8s 6s 16 18 mph 1023.3mb 55f 54f
2:50 6ft 8s 6s 16 18 mph 1023.2mb 55f 54f
1:50 6ft 8s 6s 16 18 mph 1023mb 55f 54f
12:50 6ft 8s 6s 13 18 mph 1022.8mb 55f 54f
11:50 6ft 8s 6s 13 18 mph 1022.3mb 55f 54f
10:50 5ft 8s 6s 11 16 mph 1022mb 55f 54f
9:50 5.5ft 9s 6s 13 16 mph 1021.5mb 55f 54f
8:50 5ft 8s 6s 9 13 mph 1021mb 55f 54f
7:50 5ft 9s 6s 11 13 mph 1020.5mb 55f 54f
6:50 5ft 9s 6s 13 16 mph 1020.1mb 56f 54f
5:50 5ft 9s 6s 13 18 mph 1019.8mb 55f 54f
4:50 5ft 8s 6s 13 16 mph 1019.1mb 55f 54f
3:50 5ft 8s 6s 13 16 mph 1018.7mb 56f 54f
2:50 5ft 9s 6s 11 16 mph 1018.6mb 56f 55f
1:50 5.5ft 9s 6s 11 13 mph 1018.4mb 56f 55f
12:50 5ft 9s 6s 11 16 mph 1018.3mb 56f 55f
Di 05/24 11:50 5ft 9s 7s 11 13 mph 1018.2mb 56f 55f
10:50 5ft 9s 7s 9 11 mph 1018.1mb 56f 55f
9:50 5ft 10s 7s 11 13 mph 1017.8mb 56f 55f
8:50 5ft 9s 7s 9 11 mph 1017.4mb 57f 55f
7:50 5ft 9s 7s 9 11 mph 1017.2mb 57f 55f
6:50 5ft 10s 7s 13 16 mph 1017.3mb 57f 55f
5:50 5ft 9s 7s 11 13 mph 1017.3mb 57f 55f
4:50 4.5ft 9s 7s 9 11 mph 1017.3mb 57f 55f
3:50 5.5ft 9s 7s 11 13 mph 1017.3mb 57f 55f
2:50 6ft 9s 7s 11
mph
1017.3mb 57f 55f
1:50 5.5ft 9s 6s 11
mph
1017.1mb 57f 55f
12:50 5.5ft 10s 7s 4 7 mph 1016.9mb 57f 55f
11:50 6ft 9s 7s 9 11 mph 1016.6mb 57f 55f
10:50 6ft 10s 7s 11 13 mph 1016.5mb 56f 54f
9:50 6ft 9s 7s 13 16 mph 1016.2mb 56f 53f
8:50 6.5ft 9s 7s 9 11 mph 1015.9mb 56f 55f
7:50 6ft 10s 6s 11 16 mph 1015.5mb 56f 55f
6:50 6ft 9s 7s 13 16 mph 1015mb 56f 55f
5:50 6.5ft 10s 7s 11 16 mph 1014.8mb 56f 55f
4:50 6ft 9s 7s 11 13 mph 1014.8mb 56f 55f
3:50 6.5ft 9s 7s 9 11 mph 1014.8mb 56f 55f
2:50 6ft 9s 7s 11 13 mph 1014.7mb 56f 55f
1:50 6ft 9s 7s 9 13 mph 1014.8mb 56f 55f
12:50 5.5ft 9s 7s 11 13 mph 1014.8mb 56f 55f
Mo 05/23 11:50 7ft 9s 8s 9 11 mph 1014.7mb 56f 55f
10:50 6ft 10s 7s 11 13 mph 1014.5mb 56f 55f
9:50 6.5ft 10s 7s 13 16 mph 1014.4mb 56f 55f
8:50 6.5ft 9s 8s 11 13 mph 1014.1mb 56f 56f
7:50 6ft 9s 7s 11 13 mph 1013.8mb 57f 56f
6:50 6ft 10s 7s 11 16 mph 1013.8mb 57f 57f
5:50 7ft 10s 7s 11 13 mph 1013.8mb 58f 57f
4:50 6ft 9s 7s 9
mph
1014mb 58f 56f
3:50 6ft 9s 7s 4 7 mph 1014.2mb 58f 56f
2:50 6ft 9s 7s 7
mph
1014.2mb 57f 56f
1:50 7ft 9s 7s 7 9 mph 1014.2mb 57f 56f
12:50 6ft 9s 7s 9
mph
1014.1mb 57f 55f
11:50 6ft 9s 7s 7 9 mph 1013.9mb 56f 55f
10:50 6ft 8s 7s 9 11 mph 1013.8mb 56f 55f
9:50 6ft 9s 7s 11 13 mph 1013.8mb 56f 54f
8:50 5.5ft 9s 7s 11 13 mph 1013.6mb 56f 54f
7:50 5ft 9s 7s 11 13 mph 1013.4mb 56f 53f
6:50 4.5ft 8s 6s 9 11 mph 1013.1mb 56f 54f
5:50 4.5ft 8s 6s 13 16 mph 1012.8mb 56f 54f
4:50 4ft 8s 6s 11 13 mph 1012.7mb 56f 55f
3:50 4ft 9s  -  9 11 mph 1012.9mb 56f 55f
2:50 4ft 7s 6s 11 13 mph 1012.8mb 56f 55f
1:50 4ft 7s 6s 9 11 mph 1012.9mb 56f 55f
12:50 4ft 7s 6s 9 11 mph 1013.1mb 56f 55f
So 05/22 11:50 4.5ft 8s 6s 9 11 mph 1013.2mb 56f 55f
10:50 4ft 8s 6s 13 16 mph 1013.3mb 56f 54f
9:50 4ft 8s 6s 11 13 mph 1013.2mb 56f 55f
8:50 3.5ft 8s 6s 11 13 mph 1013.4mb 56f 54f
7:50 3.5ft 8s 6s 13 16 mph 1013.5mb 56f 53f
6:50 3.5ft 8s 6s 9
mph
1013.6mb 56f 55f
5:50 3ft 8s 6s 7 9 mph 1013.6mb 56f 55f
4:50 3.5ft 8s 6s 9 11 mph 1013.4mb 56f 55f
3:50 3.5ft 8s 6s 11
mph
1013.5mb 56f 55f
2:50 4ft 8s 6s 9 11 mph 1013.4mb 56f 54f